createdAt,value
2023-05-09T00:00:49.333Z,11.1
2023-05-09T00:03:51.627Z,12.3
2023-05-09T00:06:53.382Z,11.5
2023-05-09T00:09:55.341Z,11.3
2023-05-09T00:12:57.348Z,12.6
2023-05-09T00:15:59.271Z,10.5
2023-05-09T00:19:01.284Z,12.1
2023-05-09T00:22:03.230Z,11.8
2023-05-09T00:25:05.170Z,11.2
2023-05-09T00:28:07.178Z,12.1
2023-05-09T00:31:09.152Z,12.5
2023-05-09T00:34:11.093Z,10.5
2023-05-09T00:37:13.084Z,15.9
2023-05-09T00:40:15.103Z,15.7
2023-05-09T00:43:17.068Z,13.1
2023-05-09T00:46:19.055Z,13.9
2023-05-09T00:49:26.016Z,15.1
2023-05-09T00:52:22.951Z,14.2
2023-05-09T00:55:24.923Z,14.8
2023-05-09T00:58:26.890Z,13.6
2023-05-09T01:01:28.902Z,14.7
2023-05-09T01:04:30.830Z,13.7
2023-05-09T01:07:32.792Z,13.1
2023-05-09T01:10:37.752Z,11.1
2023-05-09T01:13:39.591Z,12.1
2023-05-09T01:16:41.550Z,13.7
2023-05-09T01:19:43.516Z,15.2
2023-05-09T01:22:45.470Z,16.1
2023-05-09T01:25:47.431Z,13
2023-05-09T01:28:49.406Z,13.5
2023-05-09T01:31:51.379Z,15.1
2023-05-09T01:34:53.332Z,13.5
2023-05-09T01:37:55.298Z,12.3
2023-05-09T01:40:57.325Z,11.1
2023-05-09T01:43:59.318Z,12.3
2023-05-09T01:47:01.319Z,11.5
2023-05-09T01:53:05.185Z,16.5
2023-05-09T01:56:07.134Z,15.4
2023-05-09T01:59:09.140Z,14.9
2023-05-09T02:02:11.077Z,13.9
2023-05-09T02:05:13.202Z,12.7
2023-05-09T02:08:15.004Z,14.4
2023-05-09T02:11:16.965Z,14.9
2023-05-09T02:14:18.922Z,13.6
2023-05-09T02:17:20.887Z,14.9
2023-05-09T02:20:22.829Z,15.5
2023-05-09T02:23:24.810Z,13.6
2023-05-09T02:26:26.766Z,15.3
2023-05-09T02:29:28.728Z,15.7
2023-05-09T02:32:30.732Z,15.3
2023-05-09T02:35:32.636Z,13.6
2023-05-09T02:38:34.592Z,15.2
2023-05-09T02:41:36.951Z,13.5
2023-05-09T02:44:38.559Z,16
2023-05-09T02:47:40.518Z,12.2
2023-05-09T02:53:44.388Z,16.8
2023-05-09T02:56:46.399Z,14.6
2023-05-09T02:59:48.402Z,14.4
2023-05-09T03:02:50.392Z,15.5
2023-05-09T03:05:52.286Z,15
2023-05-09T03:08:54.292Z,13.7
2023-05-09T03:11:56.268Z,14.3
2023-05-09T03:14:58.229Z,15.1
2023-05-09T03:18:00.259Z,14.5
2023-05-09T03:21:02.125Z,12.9
2023-05-09T03:24:04.092Z,13.2
2023-05-09T03:27:06.035Z,14.4
2023-05-09T03:30:08.014Z,13.3
2023-05-09T03:33:10.068Z,16.3
2023-05-09T03:36:11.947Z,16.9
2023-05-09T03:39:13.946Z,16.2
2023-05-09T03:42:15.896Z,14.9
2023-05-09T03:45:17.846Z,11.9
2023-05-09T03:48:19.796Z,13.7
2023-05-09T03:51:21.780Z,12.6
2023-05-09T03:54:23.734Z,13.4
2023-05-09T03:57:25.692Z,14.1
2023-05-09T04:00:27.672Z,13.3
2023-05-09T04:03:29.717Z,13.4
2023-05-09T04:06:31.724Z,15.1
2023-05-09T04:09:33.581Z,15.7
2023-05-09T04:12:35.519Z,16.2
2023-05-09T04:15:37.708Z,17.2
2023-05-09T04:18:39.445Z,15
2023-05-09T04:21:41.378Z,15.5
2023-05-09T04:24:43.368Z,13.1
2023-05-09T04:27:45.316Z,14
2023-05-09T04:30:47.305Z,14.2
2023-05-09T04:33:49.242Z,11.9
2023-05-09T04:36:51.177Z,12.1
2023-05-09T04:39:53.130Z,11.6
2023-05-09T04:42:55.127Z,13.5
2023-05-09T04:45:57.062Z,15.9
2023-05-09T04:48:59.034Z,14.7
2023-05-09T04:52:01.025Z,13.7
2023-05-09T04:55:03.018Z,14
2023-05-09T04:58:04.986Z,14
2023-05-09T05:01:06.937Z,14
2023-05-09T05:04:08.942Z,13.4
2023-05-09T05:07:10.904Z,14
2023-05-09T05:10:12.825Z,13.2
2023-05-09T05:13:14.884Z,14
2023-05-09T05:16:16.895Z,12.9
2023-05-09T05:19:18.769Z,13.6
2023-05-09T05:22:20.710Z,13.5
2023-05-09T05:25:22.664Z,12.8
2023-05-09T05:28:24.635Z,12.2
2023-05-09T05:31:26.613Z,13.6
2023-05-09T05:34:28.583Z,14
2023-05-09T05:37:30.546Z,12.6
2023-05-09T05:40:32.502Z,11.1
2023-05-09T05:43:34.447Z,12.9
2023-05-09T05:46:36.416Z,13.1
2023-05-09T05:49:38.373Z,11.2
2023-05-09T05:52:40.333Z,10.1
2023-05-09T05:55:42.322Z,9.5
2023-05-09T05:58:44.259Z,11.8
2023-05-09T06:01:46.235Z,11
2023-05-09T06:04:48.179Z,10.2
2023-05-09T06:07:50.155Z,11.1
2023-05-09T06:10:52.123Z,13.8
2023-05-09T06:13:54.082Z,11.3
2023-05-09T06:16:56.089Z,11.4
2023-05-09T06:19:58.019Z,10.5
2023-05-09T06:22:59.963Z,9.5
2023-05-09T06:26:01.928Z,10.4
2023-05-09T06:29:03.901Z,12.1
2023-05-09T06:32:05.871Z,10.1
2023-05-09T06:35:07.973Z,11.5
2023-05-09T06:38:09.808Z,10.4
2023-05-09T06:41:11.746Z,10.5
2023-05-09T06:44:13.726Z,11.5
2023-05-09T06:47:15.659Z,12.1
2023-05-09T06:50:17.637Z,11.1
2023-05-09T06:53:19.617Z,11.8
2023-05-09T06:56:21.556Z,10.2
2023-05-09T06:59:23.519Z,10.5
2023-05-09T07:02:25.509Z,11.8
2023-05-09T07:05:27.488Z,10.7
2023-05-09T07:08:29.400Z,11.8
2023-05-09T07:11:31.359Z,11.3
2023-05-09T07:14:33.332Z,11.5
2023-05-09T07:17:35.279Z,11.1
2023-05-09T07:20:37.266Z,9.1
2023-05-09T07:23:39.218Z,8.8
2023-05-09T07:26:41.191Z,10.3
2023-05-09T07:29:43.133Z,8.1
2023-05-09T07:32:45.107Z,9.2
2023-05-09T07:35:47.073Z,10.5
2023-05-09T07:38:49.030Z,10.4
2023-05-09T07:41:51.020Z,8.5
2023-05-09T07:44:52.966Z,11.7
2023-05-09T07:47:54.991Z,11.6
2023-05-09T07:50:56.889Z,10.7
2023-05-09T07:53:58.830Z,8.7
2023-05-09T07:57:00.798Z,8.4
2023-05-09T08:00:02.752Z,9.5
2023-05-09T08:03:04.854Z,9.7
2023-05-09T08:06:06.677Z,8
2023-05-09T08:09:08.659Z,8.3
2023-05-09T08:12:10.634Z,8.3
2023-05-09T08:15:12.705Z,8.1
2023-05-09T08:18:14.573Z,8.8
2023-05-09T08:21:16.552Z,9.6
2023-05-09T08:24:18.501Z,8.5
2023-05-09T08:27:20.460Z,8.2
2023-05-09T08:30:22.438Z,8.5
2023-05-09T08:33:24.400Z,8.8
2023-05-09T08:36:26.346Z,10.3
2023-05-09T08:39:28.323Z,8.5
2023-05-09T08:42:30.297Z,7.9
2023-05-09T08:45:32.254Z,9.1
2023-05-09T08:48:35.916Z,10.1
2023-05-09T08:51:36.458Z,8
2023-05-09T08:54:38.239Z,8.1
2023-05-09T08:57:40.199Z,9.3
2023-05-09T09:00:42.202Z,9.2
2023-05-09T09:03:44.151Z,9.5
2023-05-09T09:06:46.267Z,11.2
2023-05-09T09:09:48.290Z,10.6
2023-05-09T09:12:50.292Z,10.9
2023-05-09T09:15:52.032Z,9.5
2023-05-09T09:18:53.959Z,8
2023-05-09T09:21:55.939Z,8.2
2023-05-09T09:24:57.945Z,8
2023-05-09T09:27:59.905Z,9.3
2023-05-09T09:31:01.844Z,7.2
2023-05-09T09:34:03.799Z,8.9
2023-05-09T09:37:05.782Z,8.9
2023-05-09T09:40:07.728Z,7.8
2023-05-09T09:43:09.721Z,8.7
2023-05-09T09:46:11.818Z,7.5
2023-05-09T09:49:13.652Z,9.6
2023-05-09T09:52:15.632Z,8.7
2023-05-09T09:55:17.642Z,7.9
2023-05-09T09:58:19.569Z,8.8
2023-05-09T10:01:21.573Z,7.7
2023-05-09T10:04:23.513Z,7.5
2023-05-09T10:07:25.466Z,7.8
2023-05-09T10:10:27.442Z,8.2
2023-05-09T10:13:29.433Z,7.8
2023-05-09T10:16:40.061Z,8.4
2023-05-09T10:19:33.324Z,8.5
2023-05-09T10:22:35.285Z,7.5
2023-05-09T10:25:37.252Z,8.8
2023-05-09T10:28:39.201Z,9.2
2023-05-09T10:31:41.237Z,9.2
2023-05-09T10:34:43.215Z,10.1
2023-05-09T10:37:45.142Z,9.8
2023-05-09T10:40:47.149Z,9.1
2023-05-09T10:43:49.117Z,9.5
2023-05-09T10:46:51.235Z,8
2023-05-09T10:49:53.033Z,8.4
2023-05-09T10:52:55.000Z,7.4
2023-05-09T10:55:56.971Z,7.2
2023-05-09T10:58:58.940Z,7.8
2023-05-09T11:02:01.275Z,6.9
2023-05-09T11:05:03.048Z,6.4
2023-05-09T11:08:05.000Z,8.1
2023-05-09T11:11:06.970Z,6.4
2023-05-09T11:14:08.934Z,6.9
2023-05-09T11:17:10.944Z,7.4
2023-05-09T11:20:12.864Z,6.9
2023-05-09T11:23:14.804Z,7.1
2023-05-09T11:26:16.792Z,7.5
2023-05-09T11:29:18.739Z,9.4
2023-05-09T11:32:20.754Z,8.9
2023-05-09T11:35:22.703Z,8.1
2023-05-09T11:38:24.671Z,7.9
2023-05-09T11:41:26.608Z,9
2023-05-09T11:44:28.588Z,8
2023-05-09T11:47:30.569Z,7.8
2023-05-09T11:50:32.510Z,10
2023-05-09T11:53:34.512Z,10.3
2023-05-09T11:56:36.479Z,8.1
2023-05-09T11:59:38.464Z,7.5
2023-05-09T12:02:40.492Z,8.3
2023-05-09T12:05:42.498Z,6.8
2023-05-09T12:08:44.439Z,7
2023-05-09T12:11:47.810Z,5.7
2023-05-09T12:14:48.537Z,6.6
2023-05-09T12:17:53.560Z,7
2023-05-09T12:20:55.540Z,6.7
2023-05-09T12:23:57.494Z,7.7
2023-05-09T12:26:59.571Z,5.9
2023-05-09T12:30:01.516Z,7.1
2023-05-09T12:33:03.533Z,7.1
2023-05-09T12:36:05.454Z,7.5
2023-05-09T12:39:07.545Z,7.6
2023-05-09T12:42:09.534Z,6.9
2023-05-09T12:45:11.665Z,11.8
2023-05-09T12:48:13.616Z,8.9
2023-05-09T12:51:15.546Z,8.5
2023-05-09T12:54:17.537Z,10.1
2023-05-09T12:57:19.576Z,11.7
2023-05-09T13:00:21.498Z,9.7
2023-05-09T13:03:23.484Z,9.6
2023-05-09T13:06:25.452Z,10.7
2023-05-09T13:09:30.444Z,10.1
2023-05-09T13:12:32.385Z,11.3
2023-05-09T13:15:34.366Z,8.3
2023-05-09T13:18:36.314Z,10.5
2023-05-09T13:21:38.424Z,10.2
2023-05-09T13:24:40.343Z,10.1
2023-05-09T13:27:42.292Z,7.6
2023-05-09T13:30:44.288Z,8.9
2023-05-09T13:33:46.243Z,9
2023-05-09T13:36:48.217Z,8.4
2023-05-09T13:39:50.159Z,7.8
2023-05-09T13:42:52.126Z,10.2
2023-05-09T13:45:56.864Z,8.4
2023-05-09T13:48:58.831Z,8.5
2023-05-09T13:52:00.765Z,9
2023-05-09T13:55:02.704Z,9.6
2023-05-09T13:58:04.669Z,7.3
2023-05-09T14:01:06.680Z,10.4
2023-05-09T14:04:08.653Z,8.8
2023-05-09T14:07:10.708Z,9.2
2023-05-09T14:10:12.736Z,8.9
2023-05-09T14:13:14.676Z,9.2
2023-05-09T14:16:16.611Z,10.6
2023-05-09T14:19:18.554Z,8.8
2023-05-09T14:22:20.518Z,8.4
2023-05-09T14:25:22.480Z,9.6
2023-05-09T14:28:24.434Z,9.8
2023-05-09T14:31:26.418Z,8.9
2023-05-09T14:34:28.383Z,10.2
2023-05-09T14:37:30.345Z,10.1
2023-05-09T14:40:32.319Z,9.9
2023-05-09T14:43:34.238Z,9.2
2023-05-09T14:46:36.372Z,11.9
2023-05-09T14:49:38.438Z,11.5
2023-05-09T14:52:40.252Z,11
2023-05-09T14:55:42.236Z,10
2023-05-09T14:58:44.216Z,11.2
2023-05-09T15:01:46.198Z,10.1
2023-05-09T15:04:48.408Z,9
2023-05-09T15:07:50.131Z,9.8
2023-05-09T15:10:52.120Z,11
2023-05-09T15:13:54.091Z,11.7
2023-05-09T15:16:56.092Z,9.7
2023-05-09T15:19:57.982Z,11.5
2023-05-09T15:23:00.047Z,10.9
2023-05-09T15:26:02.051Z,11.2
2023-05-09T15:29:04.052Z,9.2
2023-05-09T15:32:06.028Z,12.5
2023-05-09T15:35:08.008Z,13.3
2023-05-09T15:38:10.078Z,14.2
2023-05-09T15:41:11.899Z,10.2
2023-05-09T15:44:13.870Z,14.2
2023-05-09T15:47:15.845Z,11.1
2023-05-09T15:50:17.953Z,11.2
2023-05-09T15:53:19.747Z,13.5
2023-05-09T15:56:21.736Z,18
2023-05-09T15:59:23.743Z,17
2023-05-09T16:02:25.797Z,16.6
2023-05-09T16:05:27.704Z,18
2023-05-09T16:08:29.668Z,19.1
2023-05-09T16:11:31.607Z,17.9
2023-05-09T16:14:33.648Z,17.3
2023-05-09T16:17:35.546Z,18
2023-05-09T16:20:37.518Z,16.8
2023-05-09T16:23:39.468Z,18.4
2023-05-09T16:26:41.467Z,13.9
2023-05-09T16:29:43.439Z,15.3
2023-05-09T16:32:45.450Z,11.4
2023-05-09T16:35:47.345Z,15.2
2023-05-09T16:38:49.341Z,14.7
2023-05-09T16:41:51.301Z,15.3
2023-05-09T16:44:53.253Z,15.8
2023-05-09T16:47:55.366Z,16.6
2023-05-09T16:50:57.180Z,15
2023-05-09T16:53:59.168Z,14.7
2023-05-09T16:57:01.085Z,16.1
2023-05-09T17:00:03.043Z,15.5
2023-05-09T17:03:05.040Z,15.6
2023-05-09T17:06:06.965Z,16.2
2023-05-09T17:09:08.941Z,16.4
2023-05-09T17:12:10.910Z,15.9
2023-05-09T17:15:12.883Z,15.7
2023-05-09T17:18:19.442Z,13.9
2023-05-09T17:21:16.869Z,14
2023-05-09T17:24:18.836Z,12.4
2023-05-09T17:27:20.820Z,12.2
2023-05-09T17:30:23.260Z,13.8
2023-05-09T17:33:24.740Z,11.2
2023-05-09T17:36:27.082Z,12.3
2023-05-09T17:39:28.659Z,14.5
2023-05-09T17:42:30.590Z,15
2023-05-09T17:45:32.709Z,15.1
2023-05-09T17:48:34.572Z,15.5
2023-05-09T17:51:36.522Z,13.3
2023-05-09T17:54:38.603Z,15.2
2023-05-09T17:57:40.437Z,12.7
2023-05-09T18:00:42.398Z,13.1
2023-05-09T18:03:44.482Z,12.4
2023-05-09T18:06:46.303Z,14.3
2023-05-09T18:09:48.667Z,16.3
2023-05-09T18:12:50.257Z,18.8
2023-05-09T18:15:52.236Z,20.1
2023-05-09T18:18:54.189Z,16.3
2023-05-09T18:21:56.134Z,12.5
2023-05-09T18:24:58.111Z,12.4
2023-05-09T18:28:00.110Z,9.7
2023-05-09T18:31:02.056Z,11.1
2023-05-09T18:34:04.012Z,10.1
2023-05-09T18:37:05.969Z,10.2
2023-05-09T18:40:07.936Z,10.1
2023-05-09T18:43:09.915Z,9
2023-05-09T18:46:11.860Z,9.4
2023-05-09T18:49:13.819Z,9.3
2023-05-09T18:52:15.778Z,10.9
2023-05-09T18:55:17.739Z,8.1
2023-05-09T18:58:19.718Z,7.1
2023-05-09T19:01:21.728Z,6.3
2023-05-09T19:04:23.728Z,6.3
2023-05-09T19:07:25.634Z,6.1
2023-05-09T19:10:27.609Z,6.4
2023-05-09T19:13:29.621Z,7.2
2023-05-09T19:16:31.536Z,6.6
2023-05-09T19:19:33.488Z,5.9
2023-05-09T19:22:35.459Z,5
2023-05-09T19:25:37.416Z,6.6
2023-05-09T19:28:39.369Z,5.4
2023-05-09T19:31:41.372Z,5.2
2023-05-09T19:34:43.325Z,6.3
2023-05-09T19:37:45.252Z,5.9
2023-05-09T19:40:47.251Z,6.4
2023-05-09T19:43:49.202Z,6.1
2023-05-09T19:46:51.154Z,6.4
2023-05-09T19:49:53.147Z,6.9
2023-05-09T19:52:55.107Z,6.1
2023-05-09T19:55:57.063Z,6.1
2023-05-09T19:58:59.056Z,6
2023-05-09T20:02:01.000Z,6.5
2023-05-09T20:05:02.925Z,5.2
2023-05-09T20:08:04.903Z,5.9
2023-05-09T20:11:06.873Z,6
2023-05-09T20:14:08.835Z,5.2
2023-05-09T20:17:10.798Z,4.7
2023-05-09T20:20:12.807Z,6.3
2023-05-09T20:23:14.716Z,5.8
2023-05-09T20:26:16.679Z,5
2023-05-09T20:29:18.657Z,6
2023-05-09T20:32:20.602Z,5.3
2023-05-09T20:35:22.557Z,5.7
2023-05-09T20:38:26.794Z,5.8
2023-05-09T20:41:26.484Z,5.6
2023-05-09T20:44:28.452Z,7.4
2023-05-09T20:47:30.422Z,6.7
2023-05-09T20:50:32.410Z,8.2
2023-05-09T20:53:34.341Z,8.1
2023-05-09T20:56:36.328Z,8.2
2023-05-09T20:59:38.273Z,5.8
2023-05-09T21:02:40.342Z,5.2
2023-05-09T21:05:42.170Z,5.1
2023-05-09T21:08:44.121Z,4.5
2023-05-09T21:11:46.088Z,4
2023-05-09T21:14:48.071Z,3.7
2023-05-09T21:17:50.055Z,4.2
2023-05-09T21:20:52.027Z,3.8
2023-05-09T21:23:53.961Z,4.3
2023-05-09T21:26:55.920Z,4.5
2023-05-09T21:29:57.872Z,4.7
2023-05-09T21:32:59.874Z,5.7
2023-05-09T21:36:01.817Z,5.3
2023-05-09T21:39:03.765Z,5.7
2023-05-09T21:42:05.727Z,4.9
2023-05-09T21:45:07.692Z,4.6
2023-05-09T21:48:09.674Z,4.8
2023-05-09T21:51:11.841Z,5.1
2023-05-09T21:54:13.578Z,5.3
2023-05-09T21:57:15.547Z,5.4
2023-05-09T22:00:17.793Z,4.7
2023-05-09T22:03:19.515Z,4.8
2023-05-09T22:06:21.451Z,5.6
2023-05-09T22:09:23.400Z,4.8
2023-05-09T22:12:25.371Z,4.4
2023-05-09T22:15:27.329Z,5.1
2023-05-09T22:18:29.290Z,5.6
2023-05-09T22:21:31.232Z,5.2
2023-05-09T22:24:33.183Z,5.6
2023-05-09T22:27:35.175Z,4.8
2023-05-09T22:30:37.120Z,4.8
2023-05-09T22:33:39.089Z,4.8
2023-05-09T22:36:41.032Z,5.4
2023-05-09T22:39:42.989Z,5.2
2023-05-09T22:42:44.979Z,4.5
2023-05-09T22:45:47.011Z,5.6
2023-05-09T22:48:48.925Z,5.5
2023-05-09T22:51:50.865Z,4.8
2023-05-09T22:54:52.816Z,5.2
2023-05-09T22:57:54.840Z,4.8
2023-05-09T23:00:56.869Z,5.9
2023-05-09T23:03:58.761Z,5.8
2023-05-09T23:07:00.730Z,4.6
2023-05-09T23:10:02.681Z,4.5
2023-05-09T23:13:04.679Z,4.6
2023-05-09T23:16:06.638Z,4.2
2023-05-09T23:19:08.581Z,4.8
2023-05-09T23:22:10.526Z,4.3
2023-05-09T23:25:12.541Z,4.9
2023-05-09T23:28:14.472Z,4.8
2023-05-09T23:31:16.435Z,5.1
2023-05-09T23:34:18.402Z,5.9
2023-05-09T23:37:20.371Z,5.7
2023-05-09T23:40:22.310Z,4.6
2023-05-09T23:43:24.280Z,3.4
2023-05-09T23:46:26.267Z,2.9
2023-05-09T23:49:28.194Z,2.5
2023-05-09T23:52:30.158Z,2.5
2023-05-09T23:55:32.156Z,2.1
2023-05-09T23:58:34.083Z,2
